createdAt,value
2022-09-01T00:03:10.391Z,15.42
2022-09-01T00:13:10.397Z,15.35
2022-09-01T00:23:10.398Z,15.26
2022-09-01T00:33:10.367Z,15.23
2022-09-01T00:43:10.373Z,15.21
2022-09-01T00:53:10.356Z,15.25
2022-09-01T01:03:10.336Z,15.24
2022-09-01T01:13:10.341Z,15.27
2022-09-01T01:23:10.336Z,15.29
2022-09-01T01:33:10.313Z,15.3
2022-09-01T01:43:10.330Z,15.33
2022-09-01T01:53:11.239Z,15.33
2022-09-01T02:03:10.296Z,15.25
2022-09-01T02:13:10.306Z,15.21
2022-09-01T02:23:10.264Z,15.16
2022-09-01T02:33:10.278Z,15.15
2022-09-01T02:43:10.283Z,15.16
2022-09-01T02:53:10.251Z,15.14
2022-09-01T03:03:10.247Z,15.13
2022-09-01T03:13:10.220Z,15.2
2022-09-01T03:23:10.247Z,15.13
2022-09-01T03:33:10.223Z,15.1
2022-09-01T03:43:10.238Z,15.07
2022-09-01T03:53:10.244Z,15.02
2022-09-01T04:03:10.202Z,14.97
2022-09-01T04:13:10.190Z,14.99
2022-09-01T04:23:10.194Z,14.96
2022-09-01T04:33:10.204Z,14.95
2022-09-01T04:43:10.182Z,14.88
2022-09-01T04:53:10.186Z,14.81
2022-09-01T05:03:10.170Z,14.85
2022-09-01T05:13:10.132Z,14.86
2022-09-01T05:23:10.164Z,14.91
2022-09-01T05:33:10.143Z,14.99
2022-09-01T05:43:10.178Z,14.95
2022-09-01T05:53:10.996Z,14.99
2022-09-01T06:03:10.188Z,15.02
2022-09-01T06:13:10.625Z,15.06
2022-09-01T06:23:10.089Z,15.1
2022-09-01T06:33:10.106Z,15.27
2022-09-01T06:43:10.077Z,15.37
2022-09-01T07:03:10.039Z,15.71
2022-09-01T07:13:10.050Z,16
2022-09-01T07:23:10.053Z,16.38
2022-09-01T07:43:09.983Z,16.59
2022-09-01T07:53:10.026Z,16.81
2022-09-01T08:03:10.058Z,17.19
2022-09-01T08:13:15.200Z,17.62
2022-09-01T08:23:09.993Z,18.27
2022-09-01T08:33:10.466Z,18.17
2022-09-01T08:43:13.252Z,18.36
2022-09-01T08:53:10.043Z,18.54
2022-09-01T09:03:10.023Z,18.39
2022-09-01T09:13:10.070Z,18.57
2022-09-01T09:23:09.925Z,18.82
2022-09-01T09:33:37.471Z,18.96
2022-09-01T09:43:09.911Z,19.19
2022-09-01T09:53:09.871Z,20.62
2022-09-01T10:03:11.194Z,21.43
2022-09-01T10:13:09.907Z,21.62
2022-09-01T10:23:15.142Z,20.8
2022-09-01T10:33:19.021Z,20.55
2022-09-01T10:43:12.366Z,20.51
2022-09-01T10:53:09.819Z,20.41
2022-09-01T11:13:09.814Z,20.78
2022-09-01T11:23:09.801Z,21.15
2022-09-01T11:33:09.800Z,21.49
2022-09-01T11:43:12.490Z,21.52
2022-09-01T11:53:09.775Z,21.21
2022-09-01T12:03:09.928Z,20.86
2022-09-01T12:13:09.744Z,20.16
2022-09-01T12:23:09.718Z,19.68
2022-09-01T12:33:25.213Z,19.8
2022-09-01T12:43:09.682Z,19.82
2022-09-01T12:53:09.693Z,19.91
2022-09-01T13:03:09.709Z,20.17
2022-09-01T13:13:09.676Z,20.71
2022-09-01T13:23:09.675Z,20.96
2022-09-01T13:33:25.134Z,21.01
2022-09-01T13:43:09.644Z,20.92
2022-09-01T14:03:09.636Z,20.27
2022-09-01T14:13:09.614Z,20.31
2022-09-01T14:23:09.608Z,20.39
2022-09-01T14:33:09.594Z,20.51
2022-09-01T14:43:09.600Z,20.35
2022-09-01T14:53:09.576Z,20
2022-09-01T15:03:09.586Z,19.77
2022-09-01T15:13:09.542Z,19.57
2022-09-01T15:23:09.542Z,19.33
2022-09-01T15:33:11.962Z,19.26
2022-09-01T15:43:09.525Z,19.16
2022-09-01T15:53:09.520Z,19.02
2022-09-01T16:03:09.513Z,18.97
2022-09-01T16:13:09.512Z,18.99
2022-09-01T16:23:09.503Z,18.9
2022-09-01T16:33:09.481Z,18.79
2022-09-01T16:43:09.468Z,18.62
2022-09-01T16:53:09.465Z,18.44
2022-09-01T17:03:09.430Z,18.17
2022-09-01T17:13:09.443Z,17.92
2022-09-01T17:23:09.427Z,17.54
2022-09-01T17:33:13.087Z,17.25
2022-09-01T17:43:09.445Z,17.05
2022-09-01T17:53:10.438Z,16.91
2022-09-01T18:03:09.399Z,16.87
2022-09-01T18:13:09.408Z,16.81
2022-09-01T18:23:09.401Z,16.41
2022-09-01T18:33:09.381Z,15.92
2022-09-01T18:43:09.393Z,15.6
2022-09-01T18:53:09.387Z,15.44
2022-09-01T19:03:09.353Z,15.6
2022-09-01T19:13:09.365Z,15.54
2022-09-01T19:23:09.375Z,15.39
2022-09-01T19:33:09.328Z,15.37
2022-09-01T19:43:09.349Z,15.44
2022-09-01T19:53:10.272Z,15.34
2022-09-01T20:03:09.430Z,15.11
2022-09-01T20:13:09.309Z,14.84
2022-09-01T20:23:09.291Z,14.53
2022-09-01T20:33:09.281Z,14.32
2022-09-01T20:43:09.281Z,14.19
2022-09-01T20:53:09.271Z,13.93
2022-09-01T21:03:12.206Z,13.47
2022-09-01T21:13:09.340Z,13.22
2022-09-01T21:23:09.257Z,12.98
2022-09-01T21:33:09.248Z,12.75
2022-09-01T21:43:09.251Z,12.59
2022-09-01T21:53:09.255Z,12.39
2022-09-01T22:03:09.247Z,12.33
2022-09-01T22:13:09.216Z,12.26
2022-09-01T22:23:09.211Z,12.24
2022-09-01T22:33:09.205Z,12.27
2022-09-01T22:43:09.210Z,12.43
2022-09-01T22:53:09.202Z,12.55
2022-09-01T23:03:09.168Z,12.49
2022-09-01T23:13:09.175Z,12.32
2022-09-01T23:23:09.179Z,12
2022-09-01T23:33:09.165Z,11.79
2022-09-01T23:43:09.169Z,11.62
2022-09-01T23:53:09.164Z,11.49
